createdAt,value
2018-05-27T00:01:42.848Z,13.10
2018-05-27T00:04:09.240Z,12.88
2018-05-27T00:06:35.640Z,18.10
2018-05-27T00:09:02.857Z,15.60
2018-05-27T00:11:29.278Z,14.00
2018-05-27T00:13:55.787Z,14.30
2018-05-27T00:16:22.163Z,13.98
2018-05-27T00:18:48.537Z,13.57
2018-05-27T00:21:14.984Z,14.60
2018-05-27T00:23:41.376Z,12.75
2018-05-27T00:26:07.758Z,13.30
2018-05-27T00:28:34.182Z,14.73
2018-05-27T00:31:00.574Z,16.40
2018-05-27T00:33:26.956Z,15.20
2018-05-27T00:35:53.343Z,15.85
2018-05-27T00:38:19.745Z,15.32
2018-05-27T00:40:46.164Z,15.50
2018-05-27T00:43:12.561Z,15.68
2018-05-27T00:45:39.729Z,15.50
2018-05-27T00:48:06.103Z,15.00
2018-05-27T00:50:32.495Z,14.80
2018-05-27T00:52:58.888Z,15.77
2018-05-27T00:55:25.271Z,15.30
2018-05-27T00:57:51.677Z,15.50
2018-05-27T01:00:18.812Z,15.60
2018-05-27T01:02:45.189Z,15.80
2018-05-27T01:05:11.592Z,14.90
2018-05-27T01:07:38.727Z,16.20
2018-05-27T01:10:05.110Z,15.70
2018-05-27T01:12:31.508Z,13.50
2018-05-27T01:14:58.665Z,13.00
2018-05-27T01:17:25.775Z,13.95
2018-05-27T01:19:52.215Z,13.97
2018-05-27T01:22:18.611Z,14.02
2018-05-27T01:24:44.972Z,14.68
2018-05-27T01:27:11.362Z,16.62
2018-05-27T01:29:38.500Z,16.58
2018-05-27T01:32:05.606Z,15.93
2018-05-27T01:34:31.987Z,16.50
2018-05-27T01:36:59.186Z,17.10
2018-05-27T01:39:25.557Z,18.52
2018-05-27T01:41:51.943Z,17.70
2018-05-27T01:44:18.331Z,17.48
2018-05-27T01:46:44.721Z,18.83
2018-05-27T01:49:11.152Z,17.33
2018-05-27T01:51:37.568Z,18.00
2018-05-27T01:54:03.937Z,16.70
2018-05-27T01:56:30.464Z,17.55
2018-05-27T01:58:56.836Z,15.50
2018-05-27T02:01:23.220Z,18.95
2018-05-27T02:03:49.644Z,15.20
2018-05-27T02:06:16.013Z,15.35
2018-05-27T02:08:42.411Z,15.65
2018-05-27T02:11:08.805Z,14.80
2018-05-27T02:13:35.196Z,15.73
2018-05-27T02:16:01.621Z,16.00
2018-05-27T02:18:28.016Z,17.33
2018-05-27T02:20:55.139Z,15.95
2018-05-27T02:23:21.541Z,13.55
2018-05-27T02:25:47.931Z,14.50
2018-05-27T02:28:14.300Z,17.58
2018-05-27T02:30:40.700Z,18.87
2018-05-27T02:33:07.851Z,17.23
2018-05-27T02:35:34.973Z,17.30
2018-05-27T02:38:01.369Z,14.57
2018-05-27T02:40:27.776Z,31.67
2018-05-27T02:42:54.910Z,29.85
2018-05-27T02:45:21.307Z,21.85
2018-05-27T02:47:47.697Z,20.55
2018-05-27T02:50:14.803Z,29.58
2018-05-27T02:52:41.205Z,25.98
2018-05-27T02:55:07.605Z,20.80
2018-05-27T02:57:33.980Z,19.37
2018-05-27T03:00:00.532Z,18.70
2018-05-27T03:02:26.967Z,18.15
2018-05-27T03:04:53.336Z,15.85
2018-05-27T03:07:19.768Z,15.70
2018-05-27T03:09:46.159Z,17.23
2018-05-27T03:12:12.535Z,17.60
2018-05-27T03:14:38.941Z,17.77
2018-05-27T03:17:05.368Z,17.77
2018-05-27T03:19:31.747Z,16.70
2018-05-27T03:21:58.156Z,16.50
2018-05-27T03:24:24.559Z,17.00
2018-05-27T03:26:50.948Z,18.33
2018-05-27T03:29:18.094Z,16.23
2018-05-27T03:31:44.501Z,19.20
2018-05-27T03:34:10.868Z,19.75
2018-05-27T03:36:37.327Z,16.10
2018-05-27T03:39:04.557Z,15.50
2018-05-27T03:41:30.917Z,13.85
2018-05-27T03:43:57.300Z,15.25
2018-05-27T03:46:23.705Z,14.65
2018-05-27T03:48:50.075Z,17.42
2018-05-27T03:51:16.468Z,14.00
2018-05-27T03:53:42.860Z,12.85
2018-05-27T03:56:09.312Z,11.50
2018-05-27T03:58:36.463Z,12.05
2018-05-27T04:01:03.609Z,11.10
2018-05-27T04:03:30.740Z,11.10
2018-05-27T04:06:09.344Z,12.07
2018-05-27T04:08:35.758Z,12.70
2018-05-27T04:11:02.167Z,11.20
2018-05-27T04:13:28.564Z,11.75
2018-05-27T04:15:55.036Z,11.80
2018-05-27T04:18:21.444Z,12.25
2018-05-27T04:20:48.581Z,13.93
2018-05-27T04:23:14.944Z,12.80
2018-05-27T04:25:42.080Z,11.52
2018-05-27T04:28:09.230Z,12.90
2018-05-27T04:30:36.339Z,14.60
2018-05-27T04:33:02.745Z,14.60
2018-05-27T04:35:29.111Z,14.40
2018-05-27T04:37:55.511Z,13.85
2018-05-27T04:40:21.907Z,16.12
2018-05-27T04:42:48.276Z,16.20
2018-05-27T04:45:14.680Z,18.42
2018-05-27T04:47:41.821Z,15.50
2018-05-27T04:50:08.939Z,16.25
2018-05-27T04:52:35.360Z,15.07
2018-05-27T04:55:01.765Z,16.58
2018-05-27T04:57:28.879Z,21.77
2018-05-27T04:59:55.272Z,23.15
2018-05-27T05:02:21.668Z,25.43
2018-05-27T05:04:48.043Z,25.42
2018-05-27T05:07:14.457Z,24.20
2018-05-27T05:09:41.596Z,25.50
2018-05-27T05:12:08.709Z,23.47
2018-05-27T05:14:35.111Z,24.20
2018-05-27T05:17:01.509Z,20.40
2018-05-27T05:19:28.656Z,20.42
2018-05-27T05:21:55.082Z,18.37
2018-05-27T05:24:21.453Z,18.77
2018-05-27T05:26:47.855Z,19.62
2018-05-27T05:29:14.256Z,16.85
2018-05-27T05:31:40.620Z,16.40
2018-05-27T05:34:07.024Z,14.87
2018-05-27T05:36:33.411Z,14.80
2018-05-27T05:39:00.524Z,14.27
2018-05-27T05:41:26.924Z,15.00
2018-05-27T05:43:53.327Z,14.80
2018-05-27T05:46:20.439Z,13.55
2018-05-27T05:48:46.831Z,14.98
2018-05-27T05:51:13.192Z,14.87
2018-05-27T08:03:16.728Z,16.07
2018-05-27T08:05:43.128Z,17.42
2018-05-27T08:08:10.258Z,17.30
2018-05-27T08:10:36.651Z,17.57
2018-05-27T08:13:03.104Z,16.60
2018-05-27T08:15:29.477Z,17.90
2018-05-27T08:17:56.727Z,17.33
2018-05-27T08:20:25.646Z,16.13
2018-05-27T08:22:54.269Z,15.27
2018-05-27T08:25:22.412Z,15.27
2018-05-27T08:27:51.076Z,17.93
2018-05-27T08:30:21.439Z,16.20
2018-05-27T08:32:52.187Z,14.83
2018-05-27T08:37:39.652Z,14.27
2018-05-27T08:40:07.991Z,14.87
2018-05-27T08:42:36.628Z,15.73
2018-05-27T08:45:09.398Z,16.13
2018-05-27T08:47:41.431Z,15.43
2018-05-27T08:50:09.873Z,17.00
2018-05-27T08:52:38.220Z,18.07
2018-05-27T08:55:04.875Z,17.10
2018-05-27T08:57:31.252Z,16.87
2018-05-27T08:59:57.660Z,17.20
2018-05-27T09:02:24.042Z,17.60
2018-05-27T09:04:51.199Z,14.90
2018-05-27T09:07:18.807Z,14.70
2018-05-27T09:09:46.069Z,14.80
2018-05-27T09:12:13.182Z,14.13
2018-05-27T09:14:39.595Z,13.70
2018-05-27T09:17:05.968Z,14.13
2018-05-27T09:19:32.409Z,12.37
2018-05-27T09:21:58.803Z,12.33
2018-05-27T09:24:25.191Z,10.70
2018-05-27T09:26:52.337Z,10.70
2018-05-27T09:29:19.446Z,10.80
2018-05-27T09:31:45.840Z,9.97
2018-05-27T09:34:17.698Z,10.90
2018-05-27T09:36:44.875Z,9.87
2018-05-27T09:39:11.293Z,9.53
2018-05-27T09:41:37.764Z,8.43
2018-05-27T09:44:04.170Z,8.13
2018-05-27T09:46:30.738Z,8.60
2018-05-27T09:48:57.232Z,9.20
2018-05-27T09:51:24.428Z,9.13
2018-05-27T09:53:50.909Z,8.70
2018-05-27T09:56:18.051Z,9.40
2018-05-27T09:58:44.500Z,8.60
2018-05-27T10:01:11.701Z,8.10
2018-05-27T10:03:38.096Z,8.20
2018-05-27T10:06:05.237Z,9.43
2018-05-27T10:08:32.366Z,8.20
2018-05-27T10:10:58.760Z,7.90
2018-05-27T10:13:25.204Z,7.43
2018-05-27T10:15:51.592Z,8.57
2018-05-27T10:18:18.728Z,9.63
2018-05-27T10:20:45.113Z,9.47
2018-05-27T10:23:11.736Z,8.70
2018-05-27T10:25:38.121Z,8.30
2018-05-27T10:28:04.521Z,7.67
2018-05-27T10:30:30.908Z,8.77
2018-05-27T10:32:58.031Z,9.10
2018-05-27T10:35:24.453Z,8.03
2018-05-27T10:37:51.239Z,7.57
2018-05-27T10:40:18.552Z,7.90
2018-05-27T10:42:44.937Z,7.97
2018-05-27T10:45:12.063Z,9.50
2018-05-27T10:47:38.601Z,7.60
2018-05-27T10:50:05.001Z,8.00
2018-05-27T10:52:31.368Z,8.13
2018-05-27T10:54:57.761Z,5.97
2018-05-27T10:57:24.816Z,7.30
2018-05-27T10:59:51.270Z,7.40
2018-05-27T11:02:18.405Z,7.63
2018-05-27T11:04:44.833Z,8.00
2018-05-27T11:07:11.233Z,7.40
2018-05-27T11:09:38.510Z,6.00
2018-05-27T11:12:05.018Z,6.93
2018-05-27T11:14:33.852Z,6.80
2018-05-27T11:17:01.128Z,6.13
2018-05-27T11:19:27.542Z,5.93
2018-05-27T11:21:53.920Z,5.90
2018-05-27T11:24:21.064Z,6.17
2018-05-27T11:26:47.481Z,7.10
2018-05-27T11:29:13.867Z,6.50
2018-05-27T11:31:40.255Z,6.30
2018-05-27T11:34:06.641Z,6.37
2018-05-27T11:36:33.033Z,7.27
2018-05-27T11:38:59.536Z,6.77
2018-05-27T11:41:25.939Z,6.63
2018-05-27T11:43:52.313Z,5.70
2018-05-27T11:46:18.716Z,6.20
2018-05-27T11:48:45.212Z,5.73
2018-05-27T11:51:11.617Z,5.63
2018-05-27T11:53:38.000Z,5.03
2018-05-27T11:56:05.136Z,5.90
2018-05-27T11:58:31.503Z,6.03
2018-05-27T12:00:57.891Z,5.20
2018-05-27T12:03:24.268Z,5.40
2018-05-27T12:05:50.722Z,5.33
2018-05-27T12:08:17.131Z,5.20
2018-05-27T12:10:43.575Z,4.80
2018-05-27T12:13:10.023Z,4.47
2018-05-27T12:15:36.418Z,4.50
2018-05-27T12:18:03.558Z,4.67
2018-05-27T12:20:30.701Z,4.47
2018-05-27T12:22:57.072Z,4.50
2018-05-27T12:25:23.472Z,4.00
2018-05-27T12:27:49.917Z,4.90
2018-05-27T12:30:17.056Z,4.33
2018-05-27T12:32:43.424Z,4.30
2018-05-27T12:35:09.837Z,4.60
2018-05-27T12:37:36.948Z,4.70
2018-05-27T12:40:03.377Z,4.30
2018-05-27T12:42:29.738Z,3.47
2018-05-27T12:44:56.141Z,5.00
2018-05-27T12:47:22.523Z,5.03
2018-05-27T12:49:49.673Z,4.63
2018-05-27T12:52:16.817Z,5.40
2018-05-27T12:54:43.203Z,4.50
2018-05-27T12:57:09.615Z,4.30
2018-05-27T12:59:35.987Z,4.57
2018-05-27T13:02:02.413Z,4.50
2018-05-27T13:04:28.792Z,4.70
2018-05-27T13:06:55.966Z,4.40
2018-05-27T13:09:22.377Z,4.40
2018-05-27T13:11:48.782Z,4.97
2018-05-27T13:14:15.179Z,5.17
2018-05-27T13:16:41.718Z,5.23
2018-05-27T13:19:08.721Z,5.87
2018-05-27T13:21:35.108Z,4.20
2018-05-27T13:24:01.521Z,3.90
2018-05-27T13:26:28.640Z,2.83
2018-05-27T13:28:55.779Z,2.97
2018-05-27T13:31:22.155Z,3.70
2018-05-27T13:33:48.564Z,3.63
2018-05-27T13:36:14.972Z,4.03
2018-05-27T13:38:41.365Z,4.13
2018-05-27T13:41:07.757Z,4.20
2018-05-27T13:43:34.160Z,4.60
2018-05-27T13:46:00.554Z,4.83
2018-05-27T13:48:27.738Z,4.23
2018-05-27T13:50:54.144Z,4.10
2018-05-27T13:53:21.244Z,4.73
2018-05-27T13:55:47.671Z,4.83
2018-05-27T13:58:14.069Z,5.00
2018-05-27T14:00:40.453Z,4.80
2018-05-27T14:03:06.844Z,5.07
2018-05-27T14:05:33.222Z,3.97
2018-05-27T14:07:59.652Z,4.20
2018-05-27T14:10:26.061Z,5.17
2018-05-27T14:12:52.452Z,4.63
2018-05-27T14:15:19.572Z,4.57
2018-05-27T14:17:45.965Z,4.60
2018-05-27T14:20:12.381Z,5.17
2018-05-27T14:22:39.520Z,5.10
2018-05-27T14:25:06.668Z,5.10
2018-05-27T14:27:33.037Z,4.60
2018-05-27T14:30:00.240Z,4.90
2018-05-27T14:32:26.624Z,4.67
2018-05-27T14:34:53.015Z,4.70
2018-05-27T14:37:19.383Z,4.47
2018-05-27T14:39:45.781Z,4.20
2018-05-27T14:42:12.154Z,3.73
2018-05-27T14:44:38.565Z,3.33
2018-05-27T14:47:05.662Z,4.23
2018-05-27T14:49:32.070Z,4.77
2018-05-27T14:51:58.471Z,4.27
2018-05-27T14:54:25.631Z,4.83
2018-05-27T14:56:52.796Z,6.23
2018-05-27T14:59:19.906Z,4.80
2018-05-27T15:01:46.296Z,4.67
2018-05-27T15:04:12.677Z,4.27
2018-05-27T15:06:39.097Z,4.17
2018-05-27T15:09:05.504Z,5.07
2018-05-27T15:11:31.903Z,3.47
2018-05-27T15:13:59.023Z,3.30
2018-05-27T15:16:25.423Z,3.80
2018-05-27T15:18:51.800Z,3.83
2018-05-27T15:21:18.198Z,3.80
2018-05-27T15:23:44.563Z,3.90
2018-05-27T15:26:10.973Z,3.40
2018-05-27T15:28:37.344Z,3.27
2018-05-27T15:31:03.747Z,3.63
2018-05-27T15:33:30.138Z,3.83
2018-05-27T15:35:57.270Z,3.30
2018-05-27T15:38:23.692Z,3.13
2018-05-27T15:40:50.053Z,2.97
2018-05-27T15:43:17.183Z,3.17
2018-05-27T15:45:43.543Z,2.70
2018-05-27T15:48:10.697Z,3.03
2018-05-27T15:50:37.812Z,3.30
2018-05-27T15:53:04.207Z,3.00
2018-05-27T15:55:30.563Z,2.90
2018-05-27T15:57:56.964Z,3.17
2018-05-27T16:00:23.332Z,3.03
2018-05-27T16:02:49.757Z,2.73
2018-05-27T16:05:16.147Z,2.90
2018-05-27T16:07:43.308Z,3.13
2018-05-27T16:10:13.016Z,2.63
2018-05-27T16:12:39.789Z,3.07
2018-05-27T16:15:06.659Z,2.93
2018-05-27T16:17:34.224Z,3.00
2018-05-27T16:20:01.172Z,3.63
2018-05-27T16:22:27.545Z,3.20
2018-05-27T16:24:54.689Z,3.43
2018-05-27T16:27:21.798Z,3.40
2018-05-27T16:29:48.191Z,3.00
2018-05-27T16:32:14.607Z,4.10
2018-05-27T16:34:41.729Z,3.70
2018-05-27T16:37:08.352Z,3.30
2018-05-27T16:39:34.720Z,4.00
2018-05-27T16:42:01.845Z,3.17
2018-05-27T16:44:28.233Z,3.60
2018-05-27T16:46:54.636Z,5.83
2018-05-27T16:49:21.785Z,4.10
2018-05-27T16:51:50.397Z,3.90
2018-05-27T16:54:16.825Z,4.30
2018-05-27T16:56:43.980Z,4.00
2018-05-27T16:59:10.513Z,3.43
2018-05-27T17:01:37.656Z,3.13
2018-05-27T17:04:04.768Z,4.47
2018-05-27T17:06:31.192Z,3.63
2018-05-27T17:08:57.647Z,4.53
2018-05-27T17:11:24.760Z,4.63
2018-05-27T17:13:54.525Z,4.93
2018-05-27T17:16:22.662Z,5.50
2018-05-27T17:18:50.938Z,5.47
2018-05-27T17:21:19.536Z,5.90
2018-05-27T17:23:47.497Z,4.50
2018-05-27T17:26:15.752Z,5.27
2018-05-27T17:28:44.888Z,5.07
2018-05-27T17:31:13.649Z,4.67
2018-05-27T17:33:42.883Z,4.10
2018-05-27T17:36:11.854Z,3.07
2018-05-27T17:38:41.360Z,3.50
2018-05-27T17:41:09.920Z,3.90
2018-05-27T17:43:38.430Z,3.53
2018-05-27T17:46:08.182Z,3.87
2018-05-27T17:48:34.866Z,3.83
2018-05-27T17:51:02.037Z,4.20
2018-05-27T17:53:28.453Z,4.43
2018-05-27T17:55:54.888Z,4.10
2018-05-27T17:58:25.454Z,3.80
2018-05-27T18:00:55.601Z,3.87
2018-05-27T18:03:24.488Z,4.40
2018-05-27T18:05:52.212Z,4.30
2018-05-27T18:08:23.004Z,4.20
2018-05-27T18:10:53.997Z,4.00
2018-05-27T18:13:21.804Z,3.77
2018-05-27T18:18:16.964Z,3.72
2018-05-27T18:20:47.209Z,3.90
2018-05-27T18:23:19.081Z,4.07
2018-05-27T18:25:45.794Z,4.37
2018-05-27T18:28:16.496Z,4.20
2018-05-27T18:30:48.746Z,5.20
2018-05-27T18:33:15.225Z,6.30
2018-05-27T18:35:45.242Z,4.90
2018-05-27T18:38:15.317Z,5.07
2018-05-27T18:40:43.265Z,4.30
2018-05-27T18:43:13.765Z,4.60
2018-05-27T18:45:41.768Z,5.62
2018-05-27T18:48:08.923Z,4.82
2018-05-27T18:50:36.216Z,5.00
2018-05-27T18:53:06.780Z,4.37
2018-05-27T19:00:37.556Z,5.20
2018-05-27T19:03:08.969Z,5.45
2018-05-27T19:05:40.322Z,5.45
2018-05-27T20:37:37.001Z,8.50
2018-05-27T20:40:03.428Z,9.40
2018-05-27T20:42:29.807Z,9.38
2018-05-27T20:44:58.157Z,8.40
2018-05-27T20:47:24.545Z,8.00
2018-05-27T20:49:51.051Z,7.60
2018-05-27T20:52:17.462Z,8.40
2018-05-27T20:54:45.303Z,8.73
2018-05-27T20:57:12.630Z,7.43
2018-05-27T20:59:39.712Z,8.10
2018-05-27T21:02:06.910Z,7.70
2018-05-27T21:04:34.093Z,7.82
2018-05-27T21:07:00.492Z,8.15
2018-05-27T21:09:27.649Z,8.43
2018-05-27T21:11:54.804Z,8.80
2018-05-27T21:14:21.927Z,9.00
2018-05-27T21:16:48.332Z,8.80
2018-05-27T21:19:14.779Z,7.68
2018-05-27T21:21:41.193Z,8.53
2018-05-27T21:24:07.603Z,9.02
2018-05-27T21:26:34.020Z,7.90
2018-05-27T21:29:01.168Z,7.10
2018-05-27T21:31:28.319Z,7.78
2018-05-27T21:33:54.713Z,8.00
2018-05-27T21:36:21.117Z,8.00
2018-05-27T21:38:47.521Z,8.35
2018-05-27T21:41:13.887Z,7.68
2018-05-27T21:43:40.279Z,8.20
2018-05-27T21:46:06.695Z,8.35
2018-05-27T21:48:33.100Z,8.75
2018-05-27T21:50:59.483Z,8.93
2018-05-27T21:53:25.897Z,9.30
2018-05-27T21:55:52.276Z,8.40
2018-05-27T21:58:19.411Z,8.25
2018-05-27T22:00:45.855Z,8.75
2018-05-27T22:03:12.965Z,9.23
2018-05-27T22:05:39.371Z,8.75
2018-05-27T22:08:05.784Z,8.85
2018-05-27T22:10:32.943Z,9.13
2018-05-27T22:12:59.310Z,9.20
2018-05-27T22:15:25.734Z,9.60
2018-05-27T22:17:52.114Z,8.98
2018-05-27T22:20:18.515Z,9.55
2018-05-27T22:22:44.890Z,9.20
2018-05-27T22:25:12.039Z,9.35
2018-05-27T22:27:39.167Z,9.70
2018-05-27T22:30:05.588Z,10.73
2018-05-27T22:32:31.991Z,11.00
2018-05-27T22:34:58.380Z,11.23
2018-05-27T22:37:24.791Z,10.43
2018-05-27T22:39:51.175Z,10.65
2018-05-27T22:42:18.309Z,11.17
2018-05-27T22:44:44.684Z,11.57
2018-05-27T22:47:11.108Z,11.55
2018-05-27T22:49:37.507Z,11.20
2018-05-27T22:52:03.889Z,11.43
2018-05-27T22:54:30.280Z,11.77
2018-05-27T22:56:57.405Z,11.00
2018-05-27T22:59:23.799Z,11.05
2018-05-27T23:01:50.198Z,11.63
2018-05-27T23:04:16.567Z,11.55
2018-05-27T23:06:42.954Z,12.43
2018-05-27T23:09:09.358Z,12.40
2018-05-27T23:11:35.749Z,13.60
2018-05-27T23:14:02.152Z,12.90
2018-05-27T23:16:28.560Z,11.90
2018-05-27T23:18:54.919Z,12.43
2018-05-27T23:21:21.319Z,12.90
2018-05-27T23:23:47.738Z,12.40
2018-05-27T23:26:14.140Z,12.37
2018-05-27T23:28:41.282Z,13.00
2018-05-27T23:31:07.657Z,11.50
2018-05-27T23:33:34.048Z,12.17
2018-05-27T23:36:00.462Z,12.63
2018-05-27T23:38:26.831Z,11.48
2018-05-27T23:40:54.005Z,12.18
2018-05-27T23:43:20.411Z,12.02
2018-05-27T23:45:47.545Z,12.50
2018-05-27T23:48:13.960Z,12.90
2018-05-27T23:50:40.366Z,12.98
2018-05-27T23:53:06.760Z,13.50
2018-05-27T23:55:33.180Z,13.20
2018-05-27T23:57:59.547Z,13.35
